This is the latest recevied weather packets stored in our database for station/object YN3ZBQ-13. If no packets are shown the sender has not sent any weather packets the latest 10 day(s).
| Time | Temp. | Humidity | Pressure | Rain* | Wind** | Luminosity | Snow |
|---|---|---|---|---|---|---|---|
| 1777658490 | 32.78° C | 42% | 1008 hPa | 0 mm | - | - | - |
| 1777657890 | 33.33° C | 42% | 1008 hPa | 0 mm | - | - | - |
| 1777657289 | 33.33° C | 42% | 1008 hPa | 0 mm | - | - | - |
| 1777656689 | 31.67° C | 44% | 1008 hPa | 0 mm | - | - | - |
| 1777656089 | 32.22° C | 44% | 1009 hPa | 0 mm | - | - | - |
| 1777655488 | 32.78° C | 44% | 1009 hPa | 0 mm | - | - | - |
| 1777654887 | 31.11° C | 44% | 1009 hPa | 0 mm | - | - | - |
| 1777654287 | 31.11° C | 44% | 1009 hPa | 0 mm | - | - | - |
| 1777653687 | 31.67° C | 44% | 1009 hPa | 0 mm | - | - | - |
| 1777653087 | 32.22° C | 44% | 1009 hPa | 0 mm | - | - | - |
| 1777652486 | 30.56° C | 47% | 1010 hPa | 0 mm | - | - | - |
| 1777651886 | 31.11° C | 47% | 1010 hPa | 0 mm | - | - | - |
| 1777651285 | 31.67° C | 47% | 1010 hPa | 0 mm | - | - | - |
| 1777650685 | 31.67° C | 47% | 1010 hPa | 0 mm | - | - | - |
| 1777650085 | 30.56° C | 50% | 1010 hPa | 0 mm | - | - | - |
| 1777649485 | 31.11° C | 50% | 1010 hPa | 0 mm | - | - | - |
| 1777648885 | 29.44° C | 56% | 1010 hPa | 0 mm | - | - | - |
| 1777648284 | 29.44° C | 56% | 1010 hPa | 0 mm | - | - | - |
| 1777647684 | 28.89° C | 53% | 1010 hPa | 0 mm | - | - | - |
| 1777647084 | 28.89° C | 57% | 1010 hPa | 0 mm | - | - | - |
| 1777646483 | 28.89° C | 57% | 1010 hPa | 0 mm | - | - | - |
| 1777645883 | 27.22° C | 64% | 1010 hPa | 0 mm | - | - | - |
| 1777645283 | 27.78° C | 64% | 1010 hPa | 0 mm | - | - | - |
| 1777644683 | 28.33° C | 64% | 1010 hPa | 0 mm | - | - | - |
| 1777644082 | 27.22° C | 64% | 1010 hPa | 0 mm | - | - | - |
* Rain latest hour (hover to see other rain measurements)
** Current wind speed in m/s (hover to see current wind gust speed)